Time;durP1;ratioP1;P1;durP2;ratioP2;P2;SDS_P1;SDS_P2;PMS_P1;PMS_P2;Temp;Humidity;BMP_temperature;BMP_pressure;BME280_temperature;BME280_humidity;BME280_pressure;Samples;Min_cycle;Max_cycle;Signal;HPM_P1;HPM_P2
2022/09/27 00:02:05;;;;;;;7.67;6.92;;;;;;;12.75;91.16;98762.66;1743872;80;21188;-82
2022/09/27 00:04:31;;;;;;;7.55;6.85;;;;;;;12.72;91.38;98758.24;1732574;80;21046;-83
2022/09/27 00:06:58;;;;;;;7.05;6.35;;;;;;;12.77;91.35;98745.94;1742225;81;21749;-82
2022/09/27 00:09:24;;;;;;;8.60;7.70;;;;;;;12.86;90.86;98752.38;1721308;81;21116;-82
2022/09/27 00:11:52;;;;;;;9.45;7.37;;;;;;;12.82;91.00;98755.16;1744622;80;21033;-83
2022/09/27 00:14:20;;;;;;;8.65;7.00;;;;;;;12.80;91.20;98756.69;1739582;80;21151;-82
2022/09/27 00:16:46;;;;;;;7.40;6.58;;;;;;;12.84;91.08;98755.25;1733163;80;22002;-81
2022/09/27 00:19:16;;;;;;;8.13;7.10;;;;;;;12.93;90.80;98747.88;1734198;80;21044;-84
2022/09/27 00:21:44;;;;;;;8.08;7.05;;;;;;;12.90;90.88;98739.78;1737175;80;21046;-83
2022/09/27 00:24:13;;;;;;;7.33;6.47;;;;;;;12.84;90.97;98738.44;1745006;80;21530;-82
2022/09/27 00:26:41;;;;;;;8.25;6.70;;;;;;;12.87;90.81;98732.19;1745109;80;21320;-80
2022/09/27 00:29:09;;;;;;;9.03;7.12;;;;;;;12.98;90.50;98722.75;1753236;81;21673;-84
2022/09/27 00:31:39;;;;;;;8.68;7.25;;;;;;;12.91;90.41;98716.09;1752099;80;21081;-82
2022/09/27 00:34:06;;;;;;;7.50;6.55;;;;;;;12.81;90.68;98710.89;1745499;80;21046;-80
2022/09/27 00:36:33;;;;;;;8.30;7.20;;;;;;;12.76;90.80;98708.31;1751869;80;21602;-84
2022/09/27 00:38:59;;;;;;;8.58;7.33;;;;;;;12.84;90.82;98709.12;1754041;80;21877;-84
2022/09/27 00:41:31;;;;;;;8.83;8.03;;;;;;;12.78;91.11;98702.25;1737195;81;21073;-81
2022/09/27 00:44:02;;;;;;;6.72;6.08;;;;;;;12.71;91.18;98697.96;1760034;80;21025;-83
2022/09/27 00:46:41;;;;;;;7.92;7.17;;;;;;;12.69;91.33;98694.69;1775486;80;20998;-85
2022/09/27 00:49:19;;;;;;;8.15;7.22;;;;;;;12.76;91.32;98694.98;1761534;80;21524;-83
2022/09/27 00:51:49;;;;;;;13.32;7.85;;;;;;;12.73;91.55;98682.09;1772105;80;21124;-84
2022/09/27 00:54:16;;;;;;;7.67;6.83;;;;;;;12.68;91.82;98683.22;1776584;80;21049;-85
2022/09/27 00:56:43;;;;;;;7.60;6.90;;;;;;;12.71;91.82;98685.48;1764898;80;20929;-83
2022/09/27 00:59:26;;;;;;;8.65;7.85;;;;;;;12.79;91.64;98686.59;1773010;80;21034;-81
2022/09/27 01:01:52;;;;;;;8.73;7.83;;;;;;;12.79;91.86;98687.92;1754879;80;20977;-83
2022/09/27 01:04:22;;;;;;;7.58;6.78;;;;;;;12.76;91.86;98687.52;1747278;80;21429;-82
2022/09/27 01:06:50;;;;;;;7.75;7.05;;;;;;;12.79;91.81;98682.59;1736911;80;21503;-85
2022/09/27 01:09:17;;;;;;;8.85;7.08;;;;;;;12.90;91.43;98685.63;1754700;80;21040;-85
2022/09/27 01:12:23;;;;;;;8.98;7.55;;;;;;;12.90;91.57;98678.97;1742825;80;21073;-82
2022/09/27 01:15:18;;;;;;;8.95;7.03;;;;;;;12.83;91.54;98668.86;1759688;78;20970;-84
2022/09/27 01:18:06;;;;;;;9.00;8.10;;;;;;;12.84;91.61;98660.63;1706604;80;21431;-85
2022/09/27 01:21:14;;;;;;;10.20;8.03;;;;;;;12.89;91.57;98657.36;1700177;82;21022;-84
2022/09/27 01:24:20;;;;;;;8.90;8.03;;;;;;;12.83;91.74;98650.20;1691489;79;20993;-83
2022/09/27 01:27:20;;;;;;;8.70;7.80;;;;;;;12.77;91.86;98650.52;1679979;83;21038;-80
2022/09/27 01:30:17;;;;;;;9.20;8.30;;;;;;;12.87;91.68;98647.42;1743068;82;21131;-82
2022/09/27 01:33:17;;;;;;;10.00;7.85;;;;;;;12.88;91.59;98639.71;1754553;80;21513;-83
2022/09/27 01:36:17;;;;;;;9.00;7.47;;;;;;;12.82;91.85;98632.04;1759759;80;21009;-83
2022/09/27 01:38:58;;;;;;;9.45;8.35;;;;;;;12.88;91.72;98627.20;1733385;80;21387;-84
2022/09/27 01:41:49;;;;;;;10.18;7.92;;;;;;;12.95;91.52;98631.19;1767297;80;21014;-82
2022/09/27 01:44:37;;;;;;;19.67;10.03;;;;;;;12.91;91.72;98635.31;1745255;80;21037;-82
2022/09/27 01:47:14;;;;;;;9.80;8.45;;;;;;;12.88;91.81;98630.38;1762507;80;21790;-81
2022/09/27 01:49:56;;;;;;;10.08;8.30;;;;;;;12.94;91.58;98632.20;1766757;80;21006;-82
2022/09/27 01:52:40;;;;;;;9.43;8.53;;;;;;;13.01;91.38;98622.86;1767575;80;20978;-84
2022/09/27 01:55:09;;;;;;;10.60;9.50;;;;;;;12.97;91.47;98619.27;1773301;79;20934;-79
2022/09/27 01:57:40;;;;;;;10.00;8.18;;;;;;;12.92;91.67;98616.44;1757656;80;21026;-78
2022/09/27 02:00:10;;;;;;;9.08;8.05;;;;;;;12.97;91.61;98612.61;1752440;80;21237;-76
2022/09/27 02:02:53;;;;;;;10.65;9.50;;;;;;;13.05;91.28;98619.55;1759497;80;21008;-78
2022/09/27 02:05:43;;;;;;;12.10;10.68;;;;;;;13.03;91.37;98616.28;1748162;80;21062;-77
2022/09/27 02:08:44;;;;;;;9.78;8.75;;;;;;;12.98;91.51;98614.78;1758179;80;21032;-77
2022/09/27 02:11:13;;;;;;;10.90;9.85;;;;;;;13.02;91.40;98616.00;1755313;80;20998;-79
2022/09/27 02:13:59;;;;;;;11.28;10.18;;;;;;;13.02;91.32;98610.66;1754419;80;21145;-80
2022/09/27 02:16:45;;;;;;;13.85;11.40;;;;;;;12.99;91.48;98604.41;1762098;80;20997;-79
2022/09/27 02:19:17;;;;;;;10.40;9.23;;;;;;;12.93;91.71;98599.92;1754005;80;21600;-81
2022/09/27 02:22:10;;;;;;;12.63;10.50;;;;;;;12.99;91.50;98597.22;1770429;80;21029;-82
2022/09/27 02:24:45;;;;;;;11.53;10.32;;;;;;;13.01;91.34;98593.54;1767258;80;21170;-82
2022/09/27 02:27:32;;;;;;;15.05;10.95;;;;;;;12.94;91.64;98589.55;1773242;80;21734;-82
2022/09/27 02:30:04;;;;;;;10.48;9.38;;;;;;;12.90;91.96;98588.34;1757542;80;21092;-81
2022/09/27 02:32:33;;;;;;;11.65;10.58;;;;;;;12.97;91.81;98587.28;1776273;80;21071;-81
2022/09/27 02:35:07;;;;;;;18.50;11.33;;;;;;;12.95;91.74;98578.69;1744482;80;21052;-83
2022/09/27 02:37:34;;;;;;;15.35;11.68;;;;;;;12.91;92.06;98583.33;1774106;80;21532;-84
2022/09/27 02:40:03;;;;;;;11.80;10.60;;;;;;;12.87;92.28;98580.27;1759403;80;22138;-83
2022/09/27 02:42:30;;;;;;;13.83;10.78;;;;;;;12.96;92.13;98578.16;1753942;80;21551;-83
2022/09/27 02:44:57;;;;;;;13.38;11.43;;;;;;;13.04;92.07;98580.61;1753157;80;21603;-80
2022/09/27 02:47:38;;;;;;;14.87;12.20;;;;;;;13.02;92.03;98571.16;1774008;80;21069;-80
2022/09/27 02:50:27;;;;;;;13.10;10.90;;;;;;;12.96;92.01;98571.00;1770229;77;21006;-82
2022/09/27 02:53:40;;;;;;;14.07;10.93;;;;;;;13.00;91.96;98567.41;1754435;80;21136;-84
2022/09/27 02:56:25;;;;;;;14.47;12.88;;;;;;;13.04;91.85;98565.95;1768360;80;21481;-80
2022/09/27 02:59:40;;;;;;;14.25;11.35;;;;;;;12.96;92.05;98559.01;1764227;80;21070;-82
2022/09/27 03:02:32;;;;;;;14.60;10.93;;;;;;;12.91;92.31;98558.81;1752502;80;21571;-81
2022/09/27 03:05:11;;;;;;;14.28;12.70;;;;;;;13.00;92.03;98554.08;1714106;80;21024;-79
2022/09/27 03:07:40;;;;;;;14.53;12.68;;;;;;;12.98;92.13;98554.28;1777321;80;21080;-82
2022/09/27 03:10:08;;;;;;;13.30;11.08;;;;;;;12.94;92.37;98555.73;1785952;80;21019;-82
2022/09/27 03:12:34;;;;;;;17.45;11.85;;;;;;;12.97;92.29;98554.48;1774831;80;21065;-82
2022/09/27 03:15:00;;;;;;;15.23;12.37;;;;;;;13.05;92.12;98551.56;1754662;80;21037;-83
2022/09/27 03:17:45;;;;;;;15.88;12.05;;;;;;;13.08;92.06;98551.67;1762976;80;21046;-79
2022/09/27 03:20:25;;;;;;;13.38;11.97;;;;;;;13.01;92.04;98555.69;1714658;82;21906;-80
2022/09/27 03:22:55;;;;;;;14.58;11.95;;;;;;;13.01;91.90;98552.22;1755321;80;21100;-78
2022/09/27 03:25:22;;;;;;;13.90;12.70;;;;;;;13.07;92.00;98547.36;1784629;80;22264;-80
2022/09/27 03:27:49;;;;;;;20.50;13.70;;;;;;;13.05;92.12;98548.90;1736030;80;21032;-78
2022/09/27 03:30:15;;;;;;;14.18;11.40;;;;;;;13.01;92.20;98549.55;1774486;80;21029;-78
2022/09/27 03:32:43;;;;;;;13.38;12.05;;;;;;;13.03;92.21;98544.82;1754712;80;21094;-75
2022/09/27 03:35:28;;;;;;;15.23;12.95;;;;;;;13.10;92.01;98544.28;1762567;80;21307;-75
2022/09/27 03:37:55;;;;;;;18.73;14.55;;;;;;;13.06;92.07;98539.89;1764990;80;21088;-75
2022/09/27 03:40:21;;;;;;;15.43;12.60;;;;;;;12.99;92.07;98537.77;1768670;80;21029;-79
2022/09/27 03:42:49;;;;;;;14.15;12.70;;;;;;;12.97;92.26;98545.97;1758474;80;21050;-78
2022/09/27 03:45:16;;;;;;;16.50;13.90;;;;;;;13.07;92.25;98543.36;1751885;80;21255;-79
2022/09/27 03:47:43;;;;;;;18.45;14.55;;;;;;;13.06;92.38;98539.89;1747892;80;21029;-76
2022/09/27 03:50:10;;;;;;;16.15;13.98;;;;;;;13.05;92.54;98544.09;1737182;80;21033;-76
2022/09/27 03:52:38;;;;;;;15.10;13.50;;;;;;;13.08;92.45;98541.82;1756370;80;21501;-78
2022/09/27 03:55:06;;;;;;;16.62;15.03;;;;;;;13.18;92.11;98539.50;1750752;80;21033;-78
2022/09/27 03:57:33;;;;;;;18.23;15.00;;;;;;;13.18;92.05;98539.50;1760673;80;21175;-79
2022/09/27 04:00:00;;;;;;;16.80;14.45;;;;;;;13.15;92.23;98541.28;1719993;80;21068;-79
2022/09/27 04:02:40;;;;;;;16.00;14.10;;;;;;;13.15;91.89;98533.27;1765304;80;21102;-80
2022/09/27 04:05:08;;;;;;;21.02;17.00;;;;;;;13.23;91.41;98542.88;1743259;80;21027;-78
2022/09/27 04:07:35;;;;;;;21.60;16.57;;;;;;;13.14;91.79;98543.63;1749778;80;21091;-78
2022/09/27 04:10:04;;;;;;;17.65;14.85;;;;;;;13.08;92.27;98537.83;1739020;80;21254;-77
2022/09/27 04:12:32;;;;;;;16.07;14.25;;;;;;;13.11;92.34;98542.71;1720678;80;21596;-80
2022/09/27 04:14:59;;;;;;;17.37;15.50;;;;;;;13.23;92.30;98543.37;1763722;80;21120;-78
2022/09/27 04:17:44;;;;;;;16.87;15.08;;;;;;;13.21;92.08;98543.58;1753220;80;21032;-80
2022/09/27 04:20:15;;;;;;;16.67;13.90;;;;;;;13.15;92.29;98541.28;1750224;80;21103;-80
2022/09/27 04:22:44;;;;;;;19.73;16.02;;;;;;;13.21;92.43;98543.58;1750144;80;21493;-80
2022/09/27 04:25:12;;;;;;;20.80;16.10;;;;;;;13.31;92.08;98537.83;1760652;80;21540;-78
2022/09/27 04:27:44;;;;;;;20.30;16.82;;;;;;;13.31;92.10;98537.31;1764980;80;22176;-79
2022/09/27 04:30:12;;;;;;;19.60;15.48;;;;;;;13.26;91.93;98535.76;1738352;80;20998;-79
2022/09/27 04:32:46;;;;;;;19.27;15.88;;;;;;;13.28;91.96;98532.88;1739391;80;21035;-79
2022/09/27 04:38:09;;;;;;;21.62;18.40;;;;;;;13.32;91.93;98516.78;1779117;80;20966;-80
2022/09/27 04:40:37;;;;;;;20.43;15.90;;;;;;;13.28;92.05;98514.22;1747628;79;21020;-82
2022/09/27 04:43:03;;;;;;;20.08;17.05;;;;;;;13.32;91.88;98515.45;1762252;80;21533;-82
2022/09/27 04:45:30;;;;;;;22.32;17.95;;;;;;;13.39;91.68;98510.89;1772332;80;21069;-82
2022/09/27 04:47:57;;;;;;;26.70;20.35;;;;;;;13.35;91.63;98500.35;1769191;80;21227;-81
2022/09/27 04:50:23;;;;;;;25.08;19.32;;;;;;;13.29;92.10;98495.33;1767573;80;21564;-82
2022/09/27 04:52:52;;;;;;;21.65;17.98;;;;;;;13.26;92.22;98494.95;1759741;80;21027;-84
2022/09/27 04:55:20;;;;;;;20.88;17.98;;;;;;;13.32;92.07;98493.58;1761358;80;20973;-82
2022/09/27 04:57:47;;;;;;;26.62;22.58;;;;;;;13.41;91.85;98492.00;1745326;81;21052;-85
2022/09/27 05:00:14;;;;;;;25.60;22.32;;;;;;;13.38;91.89;98479.90;1767830;80;21137;-82
2022/09/27 05:02:44;;;;;;;25.92;20.85;;;;;;;13.32;91.98;98474.91;1755985;80;21028;-83
2022/09/27 05:05:27;;;;;;;24.23;20.88;;;;;;;13.34;91.65;98475.52;1755045;80;20993;-81
2022/09/27 05:07:54;;;;;;;25.25;22.42;;;;;;;13.39;91.58;98476.73;1757298;80;21505;-80
2022/09/27 05:10:22;;;;;;;31.25;23.83;;;;;;;13.34;91.86;98480.84;1760886;80;21135;-81
2022/09/27 05:12:49;;;;;;;26.37;21.42;;;;;;;13.30;92.11;98480.17;1766219;80;21218;-83
2022/09/27 05:15:16;;;;;;;27.32;20.60;;;;;;;13.35;92.08;98482.49;1756338;80;21395;-83
2022/09/27 05:17:52;;;;;;;27.70;22.48;;;;;;;13.44;91.84;98475.55;1676229;82;21049;-79
2022/09/27 05:20:33;;;;;;;25.68;22.32;;;;;;;13.41;91.85;98474.67;1752106;80;21036;-80
2022/09/27 05:23:10;;;;;;;24.72;21.02;;;;;;;13.35;91.96;98477.69;1764226;80;21021;-81
2022/09/27 05:25:37;;;;;;;27.35;20.48;;;;;;;13.38;92.01;98478.56;1756703;80;21564;-81
2022/09/27 05:28:04;;;;;;;27.37;21.62;;;;;;;13.45;91.61;98482.53;1759233;80;21016;-79
2022/09/27 05:30:31;;;;;;;28.27;23.10;;;;;;;13.42;92.07;98489.09;1755267;80;21036;-81
2022/09/27 05:33:09;;;;;;;27.07;22.60;;;;;;;13.42;92.34;98482.43;1762328;80;21063;-80
2022/09/27 05:35:43;;;;;;;23.50;21.03;;;;;;;13.46;91.94;98486.81;1772791;80;20995;-78
2022/09/27 05:38:09;;;;;;;28.38;22.60;;;;;;;13.52;91.93;98484.11;1774537;78;21298;-80
2022/09/27 05:40:37;;;;;;;28.92;24.32;;;;;;;13.52;92.23;98486.78;1768773;80;20990;-79
2022/09/27 05:43:03;;;;;;;28.83;22.13;;;;;;;13.54;92.41;98486.05;1762938;80;20969;-79
2022/09/27 05:45:30;;;;;;;28.15;22.05;;;;;;;13.63;92.00;98486.57;1759213;80;20961;-81
2022/09/27 05:47:58;;;;;;;26.42;23.60;;;;;;;13.73;91.71;98485.58;1757883;80;21041;-81
2022/09/27 05:50:25;;;;;;;29.63;25.00;;;;;;;13.72;91.46;98493.80;1756987;80;21091;-81
2022/09/27 05:52:52;;;;;;;24.35;21.75;;;;;;;13.69;91.60;98496.37;1750245;80;21299;-82
2022/09/27 05:55:20;;;;;;;28.57;23.62;;;;;;;13.72;91.47;98489.27;1765782;80;21490;-81
2022/09/27 05:57:59;;;;;;;26.40;23.32;;;;;;;13.80;91.20;98488.17;1750351;80;21020;-81
2022/09/27 06:00:28;;;;;;;31.17;26.20;;;;;;;13.80;91.37;98492.17;1755064;80;21060;-82
2022/09/27 06:03:00;;;;;;;27.52;23.18;;;;;;;13.78;91.28;98494.78;1723821;80;21123;-85
2022/09/27 06:05:46;;;;;;;26.48;23.35;;;;;;;13.76;90.86;98491.80;1768321;80;22056;-79
2022/09/27 06:08:27;;;;;;;30.25;27.05;;;;;;;13.79;90.84;98479.88;1752028;80;21070;-79
2022/09/27 06:11:03;;;;;;;33.92;27.05;;;;;;;13.72;91.07;98483.13;1764447;80;21002;-79
2022/09/27 06:13:29;;;;;;;28.87;25.00;;;;;;;13.63;91.29;98487.91;1744491;80;21037;-81
2022/09/27 06:15:55;;;;;;;29.85;25.75;;;;;;;13.65;91.28;98487.16;1778045;80;21218;-82
2022/09/27 06:18:22;;;;;;;30.97;26.23;;;;;;;13.69;91.09;98480.88;1760455;80;21517;-78
2022/09/27 06:20:50;;;;;;;29.95;26.68;;;;;;;13.64;91.23;98481.55;1779125;80;20998;-75
2022/09/27 06:23:19;;;;;;;36.30;27.17;;;;;;;13.52;91.47;98477.44;1753530;80;21052;-77
2022/09/27 06:25:47;;;;;;;27.65;23.67;;;;;;;13.45;91.91;98482.00;1749137;82;21174;-77
2022/09/27 06:28:16;;;;;;;28.00;25.02;;;;;;;13.49;91.96;98481.87;1769126;80;21076;-79
2022/09/27 06:30:46;;;;;;;35.30;28.55;;;;;;;13.55;91.96;98480.18;1750967;80;21033;-83
2022/09/27 06:33:16;;;;;;;36.53;30.57;;;;;;;13.50;92.00;98479.52;1750015;79;21050;-78
2022/09/27 06:35:46;;;;;;;32.33;27.20;;;;;;;13.45;92.63;98479.34;1764963;80;21013;-79
2022/09/27 06:38:14;;;;;;;37.05;29.98;;;;;;;13.50;92.38;98484.84;1754171;80;21088;-79
2022/09/27 06:40:44;;;;;;;35.95;32.05;;;;;;;13.59;92.35;98487.23;1754094;80;21213;-79
2022/09/27 06:43:18;;;;;;;41.20;33.80;;;;;;;13.60;92.68;98497.70;1757257;80;21037;-77
2022/09/27 06:45:47;;;;;;;42.90;30.88;;;;;;;13.61;92.86;98496.65;1773889;80;21579;-78
2022/09/27 06:48:24;;;;;;;41.92;34.18;;;;;;;13.68;92.73;98499.28;1738006;80;21029;-80
2022/09/27 06:50:56;;;;;;;43.55;34.65;;;;;;;13.78;92.51;98499.59;1753167;80;21036;-83
2022/09/27 06:53:23;;;;;;;42.98;36.10;;;;;;;13.78;92.50;98496.11;1770623;80;21138;-81
2022/09/27 06:55:51;;;;;;;42.17;32.60;;;;;;;13.77;92.47;98491.27;1762523;80;21092;-80
2022/09/27 07:01:10;;;;;;;43.87;36.88;;;;;;;13.89;92.11;98481.52;1738479;80;20982;-82
2022/09/27 07:03:51;;;;;;;42.78;35.68;;;;;;;13.90;92.24;98472.98;1728735;80;21143;-83
2022/09/27 07:06:22;;;;;;;47.27;34.55;;;;;;;13.89;92.25;98472.17;1768541;80;21820;-83
2022/09/27 07:08:57;;;;;;;44.45;34.43;;;;;;;13.92;92.12;98467.72;1753564;80;21055;-81
2022/09/27 07:11:24;;;;;;;56.50;37.35;;;;;;;14.02;91.69;98471.20;1755879;80;21056;-82
2022/09/27 07:13:55;;;;;;;46.33;36.90;;;;;;;14.00;91.66;98474.63;1760990;80;20946;-85
2022/09/27 07:16:23;;;;;;;43.48;32.75;;;;;;;13.94;91.46;98480.84;1760883;80;21017;-84
2022/09/27 07:18:50;;;;;;;44.58;34.67;;;;;;;13.97;91.65;98479.09;1757260;80;21114;-84
2022/09/27 07:21:16;;;;;;;48.80;37.73;;;;;;;14.07;91.82;98479.91;1757061;80;21033;-82
2022/09/27 07:23:43;;;;;;;51.55;39.78;;;;;;;14.06;91.54;98481.77;1771915;80;21029;-84
2022/09/27 07:26:12;;;;;;;44.45;35.40;;;;;;;14.04;91.97;98469.66;1772591;80;21014;-84
2022/09/27 07:28:40;;;;;;;48.13;35.55;;;;;;;14.11;91.90;98465.08;1759089;80;20976;-81
2022/09/27 07:31:08;;;;;;;48.83;36.03;;;;;;;14.21;91.68;98465.36;1775757;79;21107;-83
2022/09/27 07:33:36;;;;;;;51.35;38.17;;;;;;;14.16;91.45;98464.70;1784430;80;20993;-85
2022/09/27 07:36:07;;;;;;;54.75;35.17;;;;;;;14.10;91.78;98468.77;1756420;81;21142;-84
2022/09/27 07:38:34;;;;;;;51.68;36.33;;;;;;;14.14;91.75;98471.31;1784785;80;21005;-83
2022/09/27 07:41:12;;;;;;;49.77;37.35;;;;;;;14.26;91.64;98471.39;1769135;80;21429;-81
2022/09/27 07:43:45;;;;;;;57.78;38.48;;;;;;;14.25;92.02;98470.55;1756486;80;21254;-86
2022/09/27 07:46:13;;;;;;;54.55;35.03;;;;;;;14.24;92.16;98476.95;1757542;80;20915;-79
2022/09/27 07:48:45;;;;;;;57.27;37.23;;;;;;;14.32;91.91;98471.83;1765790;80;20997;-83
2022/09/27 07:51:14;;;;;;;60.80;38.38;;;;;;;14.44;91.69;98471.89;1775465;80;21248;-83
2022/09/27 07:53:45;;;;;;;59.13;39.00;;;;;;;14.44;91.69;98466.55;1748944;80;21053;-81
2022/09/27 07:56:32;;;;;;;59.88;35.73;;;;;;;14.45;91.75;98465.52;1746043;80;21120;-83
2022/09/27 07:58:59;;;;;;;53.83;36.68;;;;;;;14.53;91.53;98454.52;1769620;80;21072;-82
2022/09/27 08:01:25;;;;;;;58.60;39.92;;;;;;;14.61;91.22;98450.22;1756758;80;20992;-83
2022/09/27 08:03:53;;;;;;;62.60;41.88;;;;;;;14.59;91.33;98454.98;1727461;80;21053;-80
2022/09/27 08:06:20;;;;;;;53.52;35.98;;;;;;;14.55;91.46;98459.11;1757631;80;21026;-81
2022/09/27 08:08:48;;;;;;;59.65;38.00;;;;;;;14.59;91.33;98450.97;1772753;80;21532;-84
2022/09/27 08:11:17;;;;;;;63.15;40.33;;;;;;;14.68;90.92;98449.62;1774101;80;21037;-79
2022/09/27 08:13:51;;;;;;;65.20;41.13;;;;;;;14.63;90.48;98450.81;1772853;80;21045;-80
2022/09/27 08:16:17;;;;;;;61.02;39.03;;;;;;;14.53;90.84;98450.51;1757189;80;21032;-81
2022/09/27 08:19:01;;;;;;;59.05;38.70;;;;;;;14.52;91.25;98436.84;1720914;82;21055;-83
2022/09/27 08:21:33;;;;;;;62.98;41.75;;;;;;;14.63;91.19;98447.33;1700277;80;25584;-85
2022/09/27 08:24:17;;;;;;;68.30;44.50;;;;;;;14.58;91.42;98453.86;1753505;79;21034;-81
2022/09/27 08:27:06;;;;;;;61.08;39.25;;;;;;;14.53;91.87;98448.64;1750532;80;21061;-80
2022/09/27 08:29:44;;;;;;;57.17;39.00;;;;;;;14.58;91.54;98452.00;1755071;80;21113;-83
2022/09/27 08:32:11;;;;;;;64.27;39.78;;;;;;;14.68;91.65;98450.12;1730615;80;20989;-81
2022/09/27 08:34:39;;;;;;;66.35;42.20;;;;;;;14.67;91.99;98448.50;1763574;80;22221;-81
2022/09/27 08:37:07;;;;;;;65.20;36.85;;;;;;;14.65;91.52;98451.40;1762289;80;21013;-82
2022/09/27 08:39:34;;;;;;;61.28;39.65;;;;;;;14.67;91.75;98455.19;1762127;80;21684;-80
2022/09/27 08:42:22;;;;;;;64.72;40.90;;;;;;;14.76;91.69;98452.50;1755145;80;22065;-81
2022/09/27 08:45:17;;;;;;;60.43;41.10;;;;;;;14.73;91.17;98452.94;1752174;80;21048;-81
2022/09/27 08:47:54;;;;;;;60.60;38.42;;;;;;;14.63;91.57;98454.81;1754410;80;21217;-80
2022/09/27 08:50:34;;;;;;;60.67;41.20;;;;;;;14.61;91.25;98456.91;1760511;79;21033;-82
2022/09/27 08:53:31;;;;;;;64.03;40.63;;;;;;;14.62;91.43;98451.87;1755569;80;21041;-81
2022/09/27 08:55:58;;;;;;;69.00;42.08;;;;;;;14.57;92.11;98462.41;1761750;79;21459;-82
2022/09/27 08:58:36;;;;;;;60.23;40.48;;;;;;;14.57;92.61;98463.74;1758775;80;21057;-80
2022/09/27 09:01:07;;;;;;;65.17;40.23;;;;;;;14.62;92.39;98449.69;1756116;80;21422;-82
2022/09/27 09:03:49;;;;;;;60.78;41.10;;;;;;;14.71;92.16;98449.15;1694787;83;21569;-83
2022/09/27 09:06:26;;;;;;;64.65;42.00;;;;;;;14.73;92.43;98443.59;1695092;83;21079;-78
2022/09/27 09:09:24;;;;;;;65.67;39.30;;;;;;;14.72;92.54;98442.78;1749602;80;20998;-84
2022/09/27 09:12:48;;;;;;;61.18;39.70;;;;;;;14.79;92.50;98444.53;1696161;83;21089;-84
2022/09/27 09:15:53;;;;;;;67.97;41.63;;;;;;;14.89;92.33;98428.25;1715570;82;21313;-86
2022/09/27 09:18:33;;;;;;;62.40;40.12;;;;;;;14.88;92.45;98432.48;1688136;83;21035;-82
2022/09/27 09:21:10;;;;;;;58.60;39.75;;;;;;;14.86;92.42;98429.23;1752453;79;21084;-81
2022/09/27 09:23:42;;;;;;;64.77;41.65;;;;;;;14.98;92.24;98424.72;1771531;78;21030;-83
2022/09/27 09:26:49;;;;;;;64.20;41.73;;;;;;;14.88;91.66;98405.75;1756354;80;21674;-79
2022/09/27 09:29:53;;;;;;;71.05;44.50;;;;;;;14.97;92.17;98441.82;1751528;80;21677;-87
2022/09/27 09:32:26;;;;;;;;;;;;;;;14.94;92.25;98442.27;1754640;80;21532;-82
2022/09/27 09:35:01;;;;;;;74.75;46.40;;;;;;;14.99;91.71;98443.74;1762216;80;20791;-81
2022/09/27 09:37:40;;;;;;;82.75;49.20;;;;;;;15.02;91.62;98441.13;1763431;80;21006;-86
2022/09/27 09:40:31;;;;;;;85.20;50.88;;;;;;;15.00;91.99;98436.52;1752050;80;20944;-87
2022/09/27 09:43:24;;;;;;;79.50;47.70;;;;;;;14.98;92.08;98440.76;1761100;80;21818;-82
2022/09/27 09:45:58;;;;;;;74.50;45.60;;;;;;;15.06;91.81;98441.77;1757971;80;21001;-82
2022/09/27 09:48:49;;;;;;;70.07;45.00;;;;;;;15.14;91.62;98425.41;1742380;80;21013;-83
2022/09/27 09:51:21;;;;;;;73.92;45.83;;;;;;;15.10;91.54;98430.92;1752835;80;21824;-80
2022/09/27 09:54:11;;;;;;;69.90;42.38;;;;;;;15.05;91.49;98430.79;1763909;80;21128;-79
2022/09/27 09:56:46;;;;;;;64.80;45.60;;;;;;;15.08;91.57;98426.83;1759561;80;22282;-80
2022/09/27 09:59:18;;;;;;;71.75;45.92;;;;;;;15.17;91.25;98428.66;1745776;80;22276;-84
2022/09/27 10:01:47;;;;;;;80.75;47.45;;;;;;;15.16;91.45;98429.70;1761570;80;21021;-81
2022/09/27 10:04:28;;;;;;;69.42;44.33;;;;;;;15.13;91.48;98425.63;1763322;80;21025;-85
2022/09/27 10:06:57;;;;;;;68.78;42.17;;;;;;;15.17;91.22;98428.66;1761713;80;21009;-81
2022/09/27 10:09:25;;;;;;;73.40;46.02;;;;;;;15.21;90.93;98428.49;1763146;79;21196;-83
2022/09/27 10:12:11;;;;;;;74.62;44.88;;;;;;;15.17;91.10;98428.66;1761083;80;21486;-83
2022/09/27 10:14:40;;;;;;;71.33;42.70;;;;;;;15.14;91.39;98428.08;1772391;80;21053;-83
2022/09/27 10:17:13;;;;;;;67.17;41.88;;;;;;;15.21;91.17;98425.81;1749187;80;21035;-82
2022/09/27 10:19:42;;;;;;;;;;;;;;;15.27;90.82;98428.91;1759254;79;21041;-85
2022/09/27 10:22:20;;;;;;;74.82;46.65;;;;;;;15.26;91.00;98420.07;1760532;79;21122;-83
2022/09/27 10:24:58;;;;;;;71.02;41.40;;;;;;;15.20;91.18;98415.65;1747399;80;21073;-85
2022/09/27 10:27:45;;;;;;;69.62;43.00;;;;;;;15.24;91.19;98419.98;1770418;80;21073;-82
2022/09/27 10:30:34;;;;;;;70.05;44.30;;;;;;;15.30;91.11;98422.58;1760403;80;20973;-81
2022/09/27 10:33:17;;;;;;;68.67;42.33;;;;;;;15.29;91.26;98422.27;1768491;80;21087;-81
2022/09/27 10:35:49;;;;;;;59.20;36.73;;;;;;;15.29;91.35;98423.61;1758630;80;21153;-79
2022/09/27 10:38:29;;;;;;;60.05;37.42;;;;;;;15.35;91.01;98416.52;1760312;80;21529;-81
2022/09/27 10:41:17;;;;;;;61.08;38.83;;;;;;;15.43;90.76;98413.52;1762751;80;20990;-82
2022/09/27 10:43:44;;;;;;;64.92;42.73;;;;;;;15.41;91.12;98411.57;1750076;80;20994;-81
2022/09/27 10:46:31;;;;;;;58.78;36.63;;;;;;;15.40;91.09;98406.48;1755139;80;21536;-82
2022/09/27 10:49:25;;;;;;;54.05;37.10;;;;;;;15.44;91.10;98404.43;1746831;80;21420;-78
2022/09/27 10:51:59;;;;;;;61.50;41.35;;;;;;;15.55;90.93;98412.19;1757275;80;21659;-85
2022/09/27 10:54:33;;;;;;;63.02;40.90;;;;;;;15.54;90.89;98411.34;1757707;80;20994;-81
2022/09/27 10:57:07;;;;;;;58.87;38.45;;;;;;;15.51;90.53;98416.34;1765377;80;21474;-82
2022/09/27 10:59:37;;;;;;;61.50;38.78;;;;;;;15.49;90.66;98423.30;1752309;80;21045;-79
2022/09/27 11:02:05;;;;;;;61.23;39.78;;;;;;;15.58;90.85;98418.92;1753743;80;21208;-79
2022/09/27 11:04:37;;;;;;;55.80;40.90;;;;;;;15.57;90.67;98422.63;1747149;80;20989;-79
2022/09/27 11:07:18;;;;;;;60.52;38.50;;;;;;;15.53;90.73;98407.59;1690655;80;21033;-81
2022/09/27 11:09:53;;;;;;;57.43;37.00;;;;;;;15.53;90.72;98404.38;1757022;80;21056;-80
2022/09/27 11:12:21;;;;;;;63.63;41.28;;;;;;;15.61;90.40;98399.73;1751804;80;21017;-79
2022/09/27 11:14:54;;;;;;;58.98;40.15;;;;;;;15.60;90.42;98398.09;1757588;80;21827;-79
2022/09/27 11:17:28;;;;;;;60.20;39.48;;;;;;;15.56;90.44;98395.59;1763352;80;21069;-79
2022/09/27 11:20:40;;;;;;;56.30;37.33;;;;;;;15.58;90.11;98398.31;1767351;79;21123;-79
2022/09/27 11:23:52;;;;;;;60.55;39.30;;;;;;;15.59;89.74;98389.75;1759016;80;21033;-85
2022/09/27 11:26:53;;;;;;;62.30;40.55;;;;;;;15.49;90.07;98380.97;1768613;80;20986;-88
2022/09/27 11:29:37;;;;;;;58.23;37.42;;;;;;;15.40;90.67;98371.16;1753737;80;21056;-84
2022/09/27 11:32:34;;;;;;;56.08;38.40;;;;;;;15.43;90.80;98360.00;1769710;80;21083;-87
2022/09/27 11:35:46;;;;;;;56.63;38.38;;;;;;;15.50;90.92;98366.02;1744128;80;20978;-84
2022/09/27 11:38:22;;;;;;;57.08;39.67;;;;;;;15.51;91.05;98357.47;1758893;80;20986;-83
2022/09/27 11:41:10;;;;;;;50.05;35.08;;;;;;;15.51;91.36;98360.14;1761455;80;21046;-84
2022/09/27 11:44:20;;;;;;;52.88;35.78;;;;;;;15.62;91.29;98359.32;1759146;78;21940;-83
2022/09/27 11:53:31;;;;;;;50.78;35.88;;;;;;;15.61;90.83;98371.09;1621982;86;21119;-87
2022/09/27 11:56:24;;;;;;;56.05;37.38;;;;;;;15.70;90.82;98367.52;1631220;86;21119;-82
2022/09/27 11:59:25;;;;;;;53.40;38.48;;;;;;;15.73;90.86;98358.53;1618899;86;21649;-84
2022/09/27 12:03:30;;;;;;;50.92;37.15;;;;;;;15.77;90.91;98371.45;1836122;75;28276;-84
2022/09/27 12:06:21;;;;;;;48.17;37.35;;;;;;;15.75;91.20;98364.99;1790713;78;20897;-81
2022/09/27 12:09:02;;;;;;;54.98;39.63;;;;;;;15.93;90.89;98369.37;1759491;80;21524;-84
2022/09/27 12:11:49;;;;;;;48.78;38.70;;;;;;;15.94;90.73;98379.59;1796247;78;20945;-82
2022/09/27 12:14:28;;;;;;;50.65;37.03;;;;;;;15.87;89.70;98376.48;1775517;78;20973;-81